sensor_id;sensor_type;location;lat;lon;timestamp;P1;durP1;ratioP1;P2;durP2;ratioP2
44516;SDS011;30223;17.182;-96.766;2023-03-01T00:00:00;6.90;;;3.50;;
44516;SDS011;30223;17.182;-96.766;2023-03-01T00:02:26;5.07;;;3.15;;
44516;SDS011;30223;17.182;-96.766;2023-03-01T00:04:53;5.22;;;2.70;;
44516;SDS011;30223;17.182;-96.766;2023-03-01T00:07:19;9.35;;;2.92;;
44516;SDS011;30223;17.182;-96.766;2023-03-01T00:09:46;3.97;;;2.78;;
44516;SDS011;30223;17.182;-96.766;2023-03-01T00:12:13;7.70;;;5.30;;
44516;SDS011;30223;17.182;-96.766;2023-03-01T00:14:39;38.83;;;6.38;;
44516;SDS011;30223;17.182;-96.766;2023-03-01T00:17:08;14.02;;;3.08;;
44516;SDS011;30223;17.182;-96.766;2023-03-01T00:19:35;11.07;;;2.85;;
44516;SDS011;30223;17.182;-96.766;2023-03-01T00:22:01;8.77;;;3.50;;
44516;SDS011;30223;17.182;-96.766;2023-03-01T00:24:28;6.68;;;3.05;;
44516;SDS011;30223;17.182;-96.766;2023-03-01T00:26:55;9.10;;;2.65;;
44516;SDS011;30223;17.182;-96.766;2023-03-01T00:29:24;11.02;;;2.60;;
44516;SDS011;30223;17.182;-96.766;2023-03-01T00:31:51;5.45;;;3.30;;
44516;SDS011;30223;17.182;-96.766;2023-03-01T00:34:18;9.77;;;2.90;;
44516;SDS011;30223;17.182;-96.766;2023-03-01T00:36:44;9.50;;;2.80;;
44516;SDS011;30223;17.182;-96.766;2023-03-01T00:39:12;3.00;;;2.08;;
44516;SDS011;30223;17.182;-96.766;2023-03-01T00:41:40;2.97;;;2.67;;
44516;SDS011;30223;17.182;-96.766;2023-03-01T00:44:07;7.60;;;4.07;;
44516;SDS011;30223;17.182;-96.766;2023-03-01T00:46:34;8.02;;;2.63;;
44516;SDS011;30223;17.182;-96.766;2023-03-01T00:49:01;10.27;;;3.08;;
44516;SDS011;30223;17.182;-96.766;2023-03-01T00:51:29;4.37;;;2.23;;
44516;SDS011;30223;17.182;-96.766;2023-03-01T00:53:58;3.58;;;1.92;;
44516;SDS011;30223;17.182;-96.766;2023-03-01T00:56:26;6.60;;;2.83;;
44516;SDS011;30223;17.182;-96.766;2023-03-01T00:58:53;4.18;;;3.47;;
44516;SDS011;30223;17.182;-96.766;2023-03-01T01:01:21;4.85;;;3.13;;
44516;SDS011;30223;17.182;-96.766;2023-03-01T01:03:56;6.40;;;3.20;;
44516;SDS011;30223;17.182;-96.766;2023-03-01T01:06:32;4.43;;;2.58;;
44516;SDS011;30223;17.182;-96.766;2023-03-01T01:09:00;7.10;;;2.92;;
44516;SDS011;30223;17.182;-96.766;2023-03-01T01:11:29;7.07;;;2.85;;
44516;SDS011;30223;17.182;-96.766;2023-03-01T01:13:56;6.40;;;3.03;;
44516;SDS011;30223;17.182;-96.766;2023-03-01T01:16:24;5.05;;;2.97;;
44516;SDS011;30223;17.182;-96.766;2023-03-01T01:18:52;4.43;;;3.30;;
44516;SDS011;30223;17.182;-96.766;2023-03-01T01:21:21;6.82;;;2.45;;
44516;SDS011;30223;17.182;-96.766;2023-03-01T01:23:49;4.88;;;2.78;;
44516;SDS011;30223;17.182;-96.766;2023-03-01T01:26:18;4.88;;;3.05;;
44516;SDS011;30223;17.182;-96.766;2023-03-01T01:28:47;6.05;;;3.00;;
44516;SDS011;30223;17.182;-96.766;2023-03-01T01:31:14;4.57;;;2.50;;
44516;SDS011;30223;17.182;-96.766;2023-03-01T01:33:43;4.45;;;2.40;;
44516;SDS011;30223;17.182;-96.766;2023-03-01T01:36:10;4.43;;;2.58;;
44516;SDS011;30223;17.182;-96.766;2023-03-01T01:38:38;8.88;;;3.33;;
44516;SDS011;30223;17.182;-96.766;2023-03-01T01:41:05;6.88;;;4.18;;
44516;SDS011;30223;17.182;-96.766;2023-03-01T01:43:33;7.25;;;3.67;;
44516;SDS011;30223;17.182;-96.766;2023-03-01T01:46:46;5.88;;;3.45;;
44516;SDS011;30223;17.182;-96.766;2023-03-01T01:48:57;6.43;;;3.70;;
44516;SDS011;30223;17.182;-96.766;2023-03-01T01:51:28;9.82;;;4.35;;
44516;SDS011;30223;17.182;-96.766;2023-03-01T01:54:06;7.68;;;4.57;;
44516;SDS011;30223;17.182;-96.766;2023-03-01T01:56:37;9.25;;;3.67;;
44516;SDS011;30223;17.182;-96.766;2023-03-01T01:59:08;6.97;;;4.60;;
44516;SDS011;30223;17.182;-96.766;2023-03-01T02:01:36;6.32;;;4.15;;
44516;SDS011;30223;17.182;-96.766;2023-03-01T02:04:03;11.35;;;5.38;;
44516;SDS011;30223;17.182;-96.766;2023-03-01T02:06:35;7.50;;;4.65;;
44516;SDS011;30223;17.182;-96.766;2023-03-01T02:09:07;7.03;;;4.68;;
44516;SDS011;30223;17.182;-96.766;2023-03-01T02:11:37;11.35;;;5.85;;
44516;SDS011;30223;17.182;-96.766;2023-03-01T02:14:04;5.60;;;3.75;;
44516;SDS011;30223;17.182;-96.766;2023-03-01T02:16:31;6.85;;;3.90;;
44516;SDS011;30223;17.182;-96.766;2023-03-01T02:18:59;6.85;;;4.80;;
44516;SDS011;30223;17.182;-96.766;2023-03-01T02:21:45;8.60;;;4.30;;
44516;SDS011;30223;17.182;-96.766;2023-03-01T02:27:55;5.72;;;3.35;;
44516;SDS011;30223;17.182;-96.766;2023-03-01T02:30:43;10.07;;;4.70;;
44516;SDS011;30223;17.182;-96.766;2023-03-01T02:33:31;7.57;;;4.80;;
44516;SDS011;30223;17.182;-96.766;2023-03-01T02:36:06;6.43;;;3.78;;
44516;SDS011;30223;17.182;-96.766;2023-03-01T02:38:42;5.95;;;4.88;;
44516;SDS011;30223;17.182;-96.766;2023-03-01T02:41:10;5.80;;;3.53;;
44516;SDS011;30223;17.182;-96.766;2023-03-01T02:43:40;7.65;;;5.00;;
44516;SDS011;30223;17.182;-96.766;2023-03-01T02:46:08;6.75;;;4.85;;
44516;SDS011;30223;17.182;-96.766;2023-03-01T02:48:45;9.98;;;3.65;;
44516;SDS011;30223;17.182;-96.766;2023-03-01T02:57:10;8.68;;;3.80;;
44516;SDS011;30223;17.182;-96.766;2023-03-01T02:59:37;8.50;;;3.83;;
44516;SDS011;30223;17.182;-96.766;2023-03-01T03:02:06;6.53;;;3.55;;
44516;SDS011;30223;17.182;-96.766;2023-03-01T03:04:33;5.40;;;3.45;;
44516;SDS011;30223;17.182;-96.766;2023-03-01T03:07:00;6.78;;;4.38;;
44516;SDS011;30223;17.182;-96.766;2023-03-01T03:09:30;6.95;;;3.50;;
44516;SDS011;30223;17.182;-96.766;2023-03-01T03:11:57;4.82;;;3.38;;
44516;SDS011;30223;17.182;-96.766;2023-03-01T03:14:29;6.85;;;4.10;;
44516;SDS011;30223;17.182;-96.766;2023-03-01T03:17:00;4.70;;;3.60;;
44516;SDS011;30223;17.182;-96.766;2023-03-01T03:19:27;10.20;;;3.90;;
44516;SDS011;30223;17.182;-96.766;2023-03-01T03:21:54;6.85;;;4.55;;
44516;SDS011;30223;17.182;-96.766;2023-03-01T03:24:21;5.75;;;3.63;;
44516;SDS011;30223;17.182;-96.766;2023-03-01T03:26:47;4.95;;;3.25;;
44516;SDS011;30223;17.182;-96.766;2023-03-01T03:29:14;5.10;;;3.22;;
44516;SDS011;30223;17.182;-96.766;2023-03-01T03:31:40;7.38;;;3.58;;
44516;SDS011;30223;17.182;-96.766;2023-03-01T03:34:07;6.75;;;3.70;;
44516;SDS011;30223;17.182;-96.766;2023-03-01T03:36:42;6.22;;;3.88;;
44516;SDS011;30223;17.182;-96.766;2023-03-01T03:39:09;5.93;;;3.90;;
44516;SDS011;30223;17.182;-96.766;2023-03-01T03:41:36;4.97;;;3.95;;
44516;SDS011;30223;17.182;-96.766;2023-03-01T03:44:02;7.60;;;4.07;;
44516;SDS011;30223;17.182;-96.766;2023-03-01T03:46:29;4.85;;;3.45;;
44516;SDS011;30223;17.182;-96.766;2023-03-01T03:48:55;6.80;;;4.07;;
44516;SDS011;30223;17.182;-96.766;2023-03-01T03:51:22;5.00;;;3.30;;
44516;SDS011;30223;17.182;-96.766;2023-03-01T03:53:49;5.00;;;3.60;;
44516;SDS011;30223;17.182;-96.766;2023-03-01T03:56:15;7.18;;;3.15;;
44516;SDS011;30223;17.182;-96.766;2023-03-01T03:58:42;6.65;;;3.70;;
44516;SDS011;30223;17.182;-96.766;2023-03-01T04:01:08;7.00;;;3.70;;
44516;SDS011;30223;17.182;-96.766;2023-03-01T04:03:35;7.18;;;2.67;;
44516;SDS011;30223;17.182;-96.766;2023-03-01T04:06:04;6.75;;;4.32;;
44516;SDS011;30223;17.182;-96.766;2023-03-01T04:08:31;6.03;;;3.53;;
44516;SDS011;30223;17.182;-96.766;2023-03-01T04:10:59;7.18;;;3.20;;
44516;SDS011;30223;17.182;-96.766;2023-03-01T04:13:47;7.50;;;3.42;;
44516;SDS011;30223;17.182;-96.766;2023-03-01T04:16:15;4.63;;;2.55;;
44516;SDS011;30223;17.182;-96.766;2023-03-01T04:18:43;5.70;;;2.85;;
44516;SDS011;30223;17.182;-96.766;2023-03-01T04:21:10;6.40;;;2.60;;
44516;SDS011;30223;17.182;-96.766;2023-03-01T04:23:37;4.63;;;2.70;;
44516;SDS011;30223;17.182;-96.766;2023-03-01T04:26:06;5.63;;;3.72;;
44516;SDS011;30223;17.182;-96.766;2023-03-01T04:28:34;4.45;;;3.05;;
44516;SDS011;30223;17.182;-96.766;2023-03-01T04:31:03;17.52;;;5.88;;
44516;SDS011;30223;17.182;-96.766;2023-03-01T04:33:41;12.40;;;3.20;;
44516;SDS011;30223;17.182;-96.766;2023-03-01T04:36:10;10.70;;;3.40;;
44516;SDS011;30223;17.182;-96.766;2023-03-01T04:38:38;6.00;;;3.05;;
44516;SDS011;30223;17.182;-96.766;2023-03-01T04:41:09;10.15;;;3.70;;
44516;SDS011;30223;17.182;-96.766;2023-03-01T04:43:36;14.57;;;4.50;;
44516;SDS011;30223;17.182;-96.766;2023-03-01T04:46:04;6.60;;;3.40;;
44516;SDS011;30223;17.182;-96.766;2023-03-01T04:48:36;8.23;;;4.03;;
44516;SDS011;30223;17.182;-96.766;2023-03-01T04:51:05;10.85;;;4.63;;
44516;SDS011;30223;17.182;-96.766;2023-03-01T04:53:32;7.70;;;3.15;;
44516;SDS011;30223;17.182;-96.766;2023-03-01T04:58:29;5.25;;;3.47;;
44516;SDS011;30223;17.182;-96.766;2023-03-01T05:00:56;8.55;;;3.13;;
44516;SDS011;30223;17.182;-96.766;2023-03-01T05:03:23;7.65;;;3.47;;
44516;SDS011;30223;17.182;-96.766;2023-03-01T05:05:51;5.97;;;3.85;;
44516;SDS011;30223;17.182;-96.766;2023-03-01T05:08:18;8.00;;;2.90;;
44516;SDS011;30223;17.182;-96.766;2023-03-01T05:10:49;4.40;;;3.25;;
44516;SDS011;30223;17.182;-96.766;2023-03-01T05:13:18;4.88;;;3.08;;
44516;SDS011;30223;17.182;-96.766;2023-03-01T05:15:54;7.10;;;3.50;;
44516;SDS011;30223;17.182;-96.766;2023-03-01T05:18:22;5.50;;;3.58;;
44516;SDS011;30223;17.182;-96.766;2023-03-01T05:20:54;8.48;;;4.55;;
44516;SDS011;30223;17.182;-96.766;2023-03-01T05:23:24;5.82;;;3.20;;
44516;SDS011;30223;17.182;-96.766;2023-03-01T05:25:51;6.32;;;2.95;;
44516;SDS011;30223;17.182;-96.766;2023-03-01T05:28:18;5.68;;;3.72;;
44516;SDS011;30223;17.182;-96.766;2023-03-01T05:30:46;8.30;;;3.63;;
44516;SDS011;30223;17.182;-96.766;2023-03-01T05:33:12;5.25;;;3.42;;
44516;SDS011;30223;17.182;-96.766;2023-03-01T05:35:43;7.80;;;3.50;;
44516;SDS011;30223;17.182;-96.766;2023-03-01T05:38:11;4.75;;;3.35;;
44516;SDS011;30223;17.182;-96.766;2023-03-01T05:40:39;3.78;;;2.83;;
44516;SDS011;30223;17.182;-96.766;2023-03-01T05:43:10;4.65;;;3.08;;
44516;SDS011;30223;17.182;-96.766;2023-03-01T05:45:38;7.50;;;3.38;;
44516;SDS011;30223;17.182;-96.766;2023-03-01T05:48:06;4.18;;;3.03;;
44516;SDS011;30223;17.182;-96.766;2023-03-01T05:50:34;4.60;;;3.17;;
44516;SDS011;30223;17.182;-96.766;2023-03-01T05:53:06;6.57;;;2.90;;
44516;SDS011;30223;17.182;-96.766;2023-03-01T05:55:35;4.65;;;2.70;;
44516;SDS011;30223;17.182;-96.766;2023-03-01T05:58:03;3.58;;;2.00;;
44516;SDS011;30223;17.182;-96.766;2023-03-01T06:00:32;4.70;;;2.88;;
44516;SDS011;30223;17.182;-96.766;2023-03-01T06:02:59;3.03;;;2.53;;
44516;SDS011;30223;17.182;-96.766;2023-03-01T06:05:27;3.80;;;2.38;;
44516;SDS011;30223;17.182;-96.766;2023-03-01T06:07:54;4.18;;;2.25;;
44516;SDS011;30223;17.182;-96.766;2023-03-01T06:10:24;3.33;;;2.47;;
44516;SDS011;30223;17.182;-96.766;2023-03-01T06:12:53;4.25;;;2.38;;
44516;SDS011;30223;17.182;-96.766;2023-03-01T06:15:20;3.30;;;2.15;;
44516;SDS011;30223;17.182;-96.766;2023-03-01T06:17:47;3.75;;;2.70;;
44516;SDS011;30223;17.182;-96.766;2023-03-01T06:22:42;7.53;;;2.55;;
44516;SDS011;30223;17.182;-96.766;2023-03-01T06:25:10;3.08;;;2.17;;
44516;SDS011;30223;17.182;-96.766;2023-03-01T06:27:38;4.50;;;2.30;;
44516;SDS011;30223;17.182;-96.766;2023-03-01T06:30:06;3.13;;;2.40;;
44516;SDS011;30223;17.182;-96.766;2023-03-01T06:35:01;5.35;;;2.28;;
44516;SDS011;30223;17.182;-96.766;2023-03-01T06:37:28;4.93;;;2.20;;
44516;SDS011;30223;17.182;-96.766;2023-03-01T06:39:55;4.30;;;2.85;;
44516;SDS011;30223;17.182;-96.766;2023-03-01T06:42:22;3.75;;;2.22;;
44516;SDS011;30223;17.182;-96.766;2023-03-01T06:44:49;5.20;;;2.90;;
44516;SDS011;30223;17.182;-96.766;2023-03-01T06:47:16;4.07;;;2.28;;
44516;SDS011;30223;17.182;-96.766;2023-03-01T06:49:42;3.53;;;2.35;;
44516;SDS011;30223;17.182;-96.766;2023-03-01T06:52:09;3.13;;;1.83;;
44516;SDS011;30223;17.182;-96.766;2023-03-01T06:54:36;4.05;;;2.42;;
44516;SDS011;30223;17.182;-96.766;2023-03-01T06:57:02;3.95;;;2.30;;
44516;SDS011;30223;17.182;-96.766;2023-03-01T06:59:29;3.30;;;1.98;;
44516;SDS011;30223;17.182;-96.766;2023-03-01T07:01:56;3.50;;;2.25;;
44516;SDS011;30223;17.182;-96.766;2023-03-01T07:04:23;4.60;;;2.40;;
44516;SDS011;30223;17.182;-96.766;2023-03-01T07:06:50;3.53;;;2.58;;
44516;SDS011;30223;17.182;-96.766;2023-03-01T07:09:23;5.00;;;2.53;;
44516;SDS011;30223;17.182;-96.766;2023-03-01T07:11:50;4.03;;;2.30;;
44516;SDS011;30223;17.182;-96.766;2023-03-01T07:14:17;4.72;;;2.10;;
44516;SDS011;30223;17.182;-96.766;2023-03-01T07:16:45;5.13;;;2.22;;
44516;SDS011;30223;17.182;-96.766;2023-03-01T07:19:12;4.70;;;2.45;;
44516;SDS011;30223;17.182;-96.766;2023-03-01T07:21:38;3.63;;;1.92;;
44516;SDS011;30223;17.182;-96.766;2023-03-01T07:24:06;3.67;;;1.88;;
44516;SDS011;30223;17.182;-96.766;2023-03-01T07:26:33;2.83;;;2.17;;
44516;SDS011;30223;17.182;-96.766;2023-03-01T07:29:00;2.25;;;1.50;;
44516;SDS011;30223;17.182;-96.766;2023-03-01T07:31:28;3.20;;;1.87;;
44516;SDS011;30223;17.182;-96.766;2023-03-01T07:33:55;6.93;;;3.42;;
44516;SDS011;30223;17.182;-96.766;2023-03-01T07:36:22;3.45;;;1.67;;
44516;SDS011;30223;17.182;-96.766;2023-03-01T07:38:50;6.68;;;2.00;;
44516;SDS011;30223;17.182;-96.766;2023-03-01T07:41:17;3.50;;;1.88;;
44516;SDS011;30223;17.182;-96.766;2023-03-01T07:43:44;3.30;;;2.00;;
44516;SDS011;30223;17.182;-96.766;2023-03-01T07:46:11;4.97;;;1.90;;
44516;SDS011;30223;17.182;-96.766;2023-03-01T07:48:37;3.85;;;1.98;;
44516;SDS011;30223;17.182;-96.766;2023-03-01T07:51:04;4.00;;;2.50;;
44516;SDS011;30223;17.182;-96.766;2023-03-01T07:53:32;4.25;;;1.73;;
44516;SDS011;30223;17.182;-96.766;2023-03-01T07:56:10;3.15;;;1.77;;
44516;SDS011;30223;17.182;-96.766;2023-03-01T07:58:38;8.55;;;2.00;;
44516;SDS011;30223;17.182;-96.766;2023-03-01T08:01:08;5.68;;;1.90;;
44516;SDS011;30223;17.182;-96.766;2023-03-01T08:03:36;2.72;;;2.13;;
44516;SDS011;30223;17.182;-96.766;2023-03-01T08:06:04;4.05;;;1.85;;
44516;SDS011;30223;17.182;-96.766;2023-03-01T08:08:32;2.72;;;1.95;;
44516;SDS011;30223;17.182;-96.766;2023-03-01T08:11:00;8.02;;;1.98;;
44516;SDS011;30223;17.182;-96.766;2023-03-01T08:13:28;3.00;;;2.38;;
44516;SDS011;30223;17.182;-96.766;2023-03-01T08:16:05;3.03;;;2.03;;
44516;SDS011;30223;17.182;-96.766;2023-03-01T08:18:37;2.80;;;1.60;;
44516;SDS011;30223;17.182;-96.766;2023-03-01T08:21:05;3.38;;;1.70;;
44516;SDS011;30223;17.182;-96.766;2023-03-01T08:23:33;3.20;;;1.42;;
44516;SDS011;30223;17.182;-96.766;2023-03-01T08:26:05;4.40;;;2.00;;
44516;SDS011;30223;17.182;-96.766;2023-03-01T08:28:33;2.95;;;1.65;;
44516;SDS011;30223;17.182;-96.766;2023-03-01T08:31:01;6.55;;;1.73;;
44516;SDS011;30223;17.182;-96.766;2023-03-01T08:33:28;3.42;;;1.88;;
44516;SDS011;30223;17.182;-96.766;2023-03-01T08:36:04;4.70;;;1.70;;
44516;SDS011;30223;17.182;-96.766;2023-03-01T08:38:32;3.95;;;2.50;;
44516;SDS011;30223;17.182;-96.766;2023-03-01T08:41:00;2.20;;;1.50;;
44516;SDS011;30223;17.182;-96.766;2023-03-01T08:43:28;3.00;;;1.55;;
44516;SDS011;30223;17.182;-96.766;2023-03-01T08:45:55;5.85;;;2.95;;
44516;SDS011;30223;17.182;-96.766;2023-03-01T08:48:22;2.50;;;2.00;;
44516;SDS011;30223;17.182;-96.766;2023-03-01T08:50:49;3.03;;;1.85;;
44516;SDS011;30223;17.182;-96.766;2023-03-01T08:53:16;2.95;;;1.85;;
44516;SDS011;30223;17.182;-96.766;2023-03-01T08:55:51;1.83;;;1.65;;
44516;SDS011;30223;17.182;-96.766;2023-03-01T08:58:18;3.58;;;1.85;;
44516;SDS011;30223;17.182;-96.766;2023-03-01T09:00:45;2.65;;;1.73;;
44516;SDS011;30223;17.182;-96.766;2023-03-01T09:03:11;3.30;;;2.03;;
44516;SDS011;30223;17.182;-96.766;2023-03-01T09:05:38;2.95;;;2.13;;
44516;SDS011;30223;17.182;-96.766;2023-03-01T09:08:05;4.07;;;2.38;;
44516;SDS011;30223;17.182;-96.766;2023-03-01T09:10:36;5.13;;;1.73;;
44516;SDS011;30223;17.182;-96.766;2023-03-01T09:13:04;3.67;;;2.05;;
44516;SDS011;30223;17.182;-96.766;2023-03-01T09:15:31;2.60;;;2.03;;
44516;SDS011;30223;17.182;-96.766;2023-03-01T09:17:59;3.40;;;1.88;;
44516;SDS011;30223;17.182;-96.766;2023-03-01T09:20:26;2.00;;;1.65;;
44516;SDS011;30223;17.182;-96.766;2023-03-01T09:22:52;2.08;;;1.45;;
44516;SDS011;30223;17.182;-96.766;2023-03-01T09:25:19;1.50;;;1.40;;
44516;SDS011;30223;17.182;-96.766;2023-03-01T09:27:46;1.55;;;1.27;;
44516;SDS011;30223;17.182;-96.766;2023-03-01T09:30:13;2.22;;;1.80;;
44516;SDS011;30223;17.182;-96.766;2023-03-01T09:32:39;2.90;;;1.70;;
44516;SDS011;30223;17.182;-96.766;2023-03-01T09:35:08;1.80;;;1.58;;
44516;SDS011;30223;17.182;-96.766;2023-03-01T09:37:35;2.65;;;1.90;;
44516;SDS011;30223;17.182;-96.766;2023-03-01T09:40:04;2.28;;;1.50;;
44516;SDS011;30223;17.182;-96.766;2023-03-01T09:42:32;3.67;;;1.88;;
44516;SDS011;30223;17.182;-96.766;2023-03-01T09:47:31;1.92;;;1.48;;
44516;SDS011;30223;17.182;-96.766;2023-03-01T09:52:46;2.75;;;1.55;;
44516;SDS011;30223;17.182;-96.766;2023-03-01T09:55:16;2.70;;;1.30;;
44516;SDS011;30223;17.182;-96.766;2023-03-01T10:10:05;2.45;;;1.30;;
44516;SDS011;30223;17.182;-96.766;2023-03-01T10:12:34;1.52;;;1.40;;
44516;SDS011;30223;17.182;-96.766;2023-03-01T10:15:15;2.33;;;1.65;;
44516;SDS011;30223;17.182;-96.766;2023-03-01T10:18:00;5.75;;;2.40;;
44516;SDS011;30223;17.182;-96.766;2023-03-01T10:20:56;6.63;;;1.87;;
44516;SDS011;30223;17.182;-96.766;2023-03-01T10:23:27;2.67;;;1.58;;
44516;SDS011;30223;17.182;-96.766;2023-03-01T10:28:39;2.20;;;1.60;;
44516;SDS011;30223;17.182;-96.766;2023-03-01T10:31:18;2.30;;;1.40;;
44516;SDS011;30223;17.182;-96.766;2023-03-01T10:33:54;1.98;;;1.30;;
44516;SDS011;30223;17.182;-96.766;2023-03-01T10:36:22;1.70;;;1.27;;
44516;SDS011;30223;17.182;-96.766;2023-03-01T10:38:53;1.33;;;1.08;;
44516;SDS011;30223;17.182;-96.766;2023-03-01T10:41:24;1.98;;;1.30;;
44516;SDS011;30223;17.182;-96.766;2023-03-01T10:43:55;2.55;;;1.23;;
44516;SDS011;30223;17.182;-96.766;2023-03-01T10:49:13;4.88;;;2.42;;
44516;SDS011;30223;17.182;-96.766;2023-03-01T10:51:51;1.55;;;1.38;;
44516;SDS011;30223;17.182;-96.766;2023-03-01T10:56:55;2.00;;;1.30;;
44516;SDS011;30223;17.182;-96.766;2023-03-01T10:59:28;1.88;;;1.08;;
44516;SDS011;30223;17.182;-96.766;2023-03-01T11:02:02;3.75;;;1.90;;
44516;SDS011;30223;17.182;-96.766;2023-03-01T11:04:35;2.05;;;1.20;;
44516;SDS011;30223;17.182;-96.766;2023-03-01T11:07:02;1.92;;;1.35;;
44516;SDS011;30223;17.182;-96.766;2023-03-01T11:09:33;2.35;;;1.40;;
44516;SDS011;30223;17.182;-96.766;2023-03-01T11:12:11;3.85;;;1.80;;
44516;SDS011;30223;17.182;-96.766;2023-03-01T11:15:01;1.58;;;0.98;;
44516;SDS011;30223;17.182;-96.766;2023-03-01T11:17:28;2.58;;;1.77;;
44516;SDS011;30223;17.182;-96.766;2023-03-01T11:23:01;2.72;;;1.80;;
44516;SDS011;30223;17.182;-96.766;2023-03-01T11:25:36;2.05;;;1.58;;
44516;SDS011;30223;17.182;-96.766;2023-03-01T11:28:24;1.60;;;1.38;;
44516;SDS011;30223;17.182;-96.766;2023-03-01T11:31:03;3.08;;;1.10;;
44516;SDS011;30223;17.182;-96.766;2023-03-01T11:39:16;1.38;;;1.23;;
44516;SDS011;30223;17.182;-96.766;2023-03-01T11:41:52;2.67;;;1.77;;
44516;SDS011;30223;17.182;-96.766;2023-03-01T11:44:42;1.92;;;1.17;;
44516;SDS011;30223;17.182;-96.766;2023-03-01T11:49:46;2.08;;;1.27;;
44516;SDS011;30223;17.182;-96.766;2023-03-01T11:52:43;1.92;;;1.27;;
44516;SDS011;30223;17.182;-96.766;2023-03-01T12:06:25;1.27;;;1.17;;
44516;SDS011;30223;17.182;-96.766;2023-03-01T12:14:35;1.50;;;1.10;;
44516;SDS011;30223;17.182;-96.766;2023-03-01T12:20:07;1.27;;;1.17;;
44516;SDS011;30223;17.182;-96.766;2023-03-01T12:28:10;2.10;;;1.30;;
44516;SDS011;30223;17.182;-96.766;2023-03-01T12:34:12;2.67;;;1.50;;
44516;SDS011;30223;17.182;-96.766;2023-03-01T12:42:05;2.67;;;1.20;;
44516;SDS011;30223;17.182;-96.766;2023-03-01T12:44:52;2.47;;;1.17;;
44516;SDS011;30223;17.182;-96.766;2023-03-01T12:47:41;1.73;;;1.30;;
44516;SDS011;30223;17.182;-96.766;2023-03-01T12:50:41;1.63;;;1.52;;
44516;SDS011;30223;17.182;-96.766;2023-03-01T12:55:51;2.72;;;1.15;;
44516;SDS011;30223;17.182;-96.766;2023-03-01T12:58:28;2.95;;;1.88;;
44516;SDS011;30223;17.182;-96.766;2023-03-01T13:01:04;1.52;;;1.40;;
44516;SDS011;30223;17.182;-96.766;2023-03-01T13:13:01;1.02;;;0.88;;
44516;SDS011;30223;17.182;-96.766;2023-03-01T13:15:37;1.90;;;1.05;;
44516;SDS011;30223;17.182;-96.766;2023-03-01T13:20:54;1.73;;;1.00;;
44516;SDS011;30223;17.182;-96.766;2023-03-01T13:33:50;1.92;;;1.33;;
44516;SDS011;30223;17.182;-96.766;2023-03-01T13:39:01;1.30;;;0.90;;
44516;SDS011;30223;17.182;-96.766;2023-03-01T13:49:28;1.80;;;1.20;;
44516;SDS011;30223;17.182;-96.766;2023-03-01T13:52:01;2.70;;;2.00;;
44516;SDS011;30223;17.182;-96.766;2023-03-01T13:54:29;4.53;;;1.58;;
44516;SDS011;30223;17.182;-96.766;2023-03-01T13:56:58;1.88;;;1.60;;
44516;SDS011;30223;17.182;-96.766;2023-03-01T13:59:26;2.55;;;1.50;;
44516;SDS011;30223;17.182;-96.766;2023-03-01T14:01:59;3.17;;;1.10;;
44516;SDS011;30223;17.182;-96.766;2023-03-01T14:04:30;2.95;;;1.30;;
44516;SDS011;30223;17.182;-96.766;2023-03-01T14:07:10;3.63;;;1.58;;
44516;SDS011;30223;17.182;-96.766;2023-03-01T14:09:42;4.40;;;1.40;;
44516;SDS011;30223;17.182;-96.766;2023-03-01T14:20:10;3.15;;;1.55;;
44516;SDS011;30223;17.182;-96.766;2023-03-01T14:22:48;7.15;;;2.22;;
44516;SDS011;30223;17.182;-96.766;2023-03-01T14:25:22;3.55;;;1.35;;
44516;SDS011;30223;17.182;-96.766;2023-03-01T14:27:57;1.92;;;1.40;;
44516;SDS011;30223;17.182;-96.766;2023-03-01T14:30:36;1.27;;;0.93;;
44516;SDS011;30223;17.182;-96.766;2023-03-01T14:33:16;2.42;;;1.27;;
44516;SDS011;30223;17.182;-96.766;2023-03-01T14:36:07;2.88;;;1.58;;
44516;SDS011;30223;17.182;-96.766;2023-03-01T14:38:36;2.00;;;1.08;;
44516;SDS011;30223;17.182;-96.766;2023-03-01T14:41:06;1.95;;;1.33;;
44516;SDS011;30223;17.182;-96.766;2023-03-01T14:43:37;5.82;;;1.52;;
44516;SDS011;30223;17.182;-96.766;2023-03-01T14:46:16;3.17;;;2.00;;
44516;SDS011;30223;17.182;-96.766;2023-03-01T14:48:56;6.20;;;1.63;;
44516;SDS011;30223;17.182;-96.766;2023-03-01T14:51:27;4.82;;;1.58;;
44516;SDS011;30223;17.182;-96.766;2023-03-01T14:53:54;4.25;;;1.30;;
44516;SDS011;30223;17.182;-96.766;2023-03-01T14:56:21;3.45;;;1.38;;
44516;SDS011;30223;17.182;-96.766;2023-03-01T14:58:52;2.00;;;1.80;;
44516;SDS011;30223;17.182;-96.766;2023-03-01T15:01:23;4.68;;;1.75;;
44516;SDS011;30223;17.182;-96.766;2023-03-01T15:03:50;2.55;;;1.30;;
44516;SDS011;30223;17.182;-96.766;2023-03-01T15:06:18;3.47;;;1.85;;
44516;SDS011;30223;17.182;-96.766;2023-03-01T15:08:53;2.25;;;1.40;;
44516;SDS011;30223;17.182;-96.766;2023-03-01T15:11:29;4.50;;;1.55;;
44516;SDS011;30223;17.182;-96.766;2023-03-01T15:13:57;7.30;;;1.85;;
44516;SDS011;30223;17.182;-96.766;2023-03-01T15:16:36;1.58;;;1.48;;
44516;SDS011;30223;17.182;-96.766;2023-03-01T15:19:06;4.65;;;1.58;;
44516;SDS011;30223;17.182;-96.766;2023-03-01T15:21:37;3.17;;;2.47;;
44516;SDS011;30223;17.182;-96.766;2023-03-01T15:29:24;3.50;;;1.70;;
44516;SDS011;30223;17.182;-96.766;2023-03-01T15:32:00;2.13;;;1.70;;
44516;SDS011;30223;17.182;-96.766;2023-03-01T15:34:32;3.45;;;1.95;;
44516;SDS011;30223;17.182;-96.766;2023-03-01T15:37:02;2.85;;;2.03;;
44516;SDS011;30223;17.182;-96.766;2023-03-01T15:42:05;7.25;;;1.80;;
44516;SDS011;30223;17.182;-96.766;2023-03-01T15:45:19;3.67;;;1.63;;
44516;SDS011;30223;17.182;-96.766;2023-03-01T15:47:50;2.05;;;1.55;;
44516;SDS011;30223;17.182;-96.766;2023-03-01T15:50:22;2.42;;;1.60;;
44516;SDS011;30223;17.182;-96.766;2023-03-01T15:52:58;3.08;;;1.50;;
44516;SDS011;30223;17.182;-96.766;2023-03-01T15:55:30;8.18;;;2.45;;
44516;SDS011;30223;17.182;-96.766;2023-03-01T15:57:59;4.25;;;1.60;;
44516;SDS011;30223;17.182;-96.766;2023-03-01T16:00:39;3.45;;;1.48;;
44516;SDS011;30223;17.182;-96.766;2023-03-01T16:03:06;5.07;;;1.27;;
44516;SDS011;30223;17.182;-96.766;2023-03-01T16:05:36;2.83;;;2.47;;
44516;SDS011;30223;17.182;-96.766;2023-03-01T16:08:03;3.83;;;1.90;;
44516;SDS011;30223;17.182;-96.766;2023-03-01T16:10:36;1.85;;;1.30;;
44516;SDS011;30223;17.182;-96.766;2023-03-01T16:13:04;3.60;;;1.95;;
44516;SDS011;30223;17.182;-96.766;2023-03-01T16:15:32;5.40;;;2.78;;
44516;SDS011;30223;17.182;-96.766;2023-03-01T16:18:03;2.95;;;1.80;;
44516;SDS011;30223;17.182;-96.766;2023-03-01T16:20:35;2.03;;;1.50;;
44516;SDS011;30223;17.182;-96.766;2023-03-01T16:23:04;5.10;;;2.25;;
44516;SDS011;30223;17.182;-96.766;2023-03-01T16:25:33;3.33;;;1.73;;
44516;SDS011;30223;17.182;-96.766;2023-03-01T16:28:00;2.67;;;1.67;;
44516;SDS011;30223;17.182;-96.766;2023-03-01T16:30:30;5.15;;;2.17;;
44516;SDS011;30223;17.182;-96.766;2023-03-01T16:32:56;5.45;;;1.67;;
44516;SDS011;30223;17.182;-96.766;2023-03-01T16:35:24;3.95;;;1.50;;
44516;SDS011;30223;17.182;-96.766;2023-03-01T16:37:50;4.45;;;1.70;;
44516;SDS011;30223;17.182;-96.766;2023-03-01T16:40:23;6.85;;;2.15;;
44516;SDS011;30223;17.182;-96.766;2023-03-01T16:42:53;4.25;;;1.35;;
44516;SDS011;30223;17.182;-96.766;2023-03-01T16:45:24;2.83;;;1.70;;
44516;SDS011;30223;17.182;-96.766;2023-03-01T16:47:52;5.28;;;2.38;;
44516;SDS011;30223;17.182;-96.766;2023-03-01T16:50:19;4.07;;;2.03;;
44516;SDS011;30223;17.182;-96.766;2023-03-01T16:52:45;2.20;;;1.55;;
44516;SDS011;30223;17.182;-96.766;2023-03-01T16:55:12;2.80;;;1.85;;
44516;SDS011;30223;17.182;-96.766;2023-03-01T16:57:39;5.88;;;2.35;;